createdAt,value
2022-09-01T00:01:16.560Z,62.45
2022-09-01T00:04:02.154Z,63.08
2022-09-01T00:06:47.722Z,63.29
2022-09-01T00:09:34.050Z,63.19
2022-09-01T00:12:19.117Z,63.24
2022-09-01T00:15:06.590Z,63.06
2022-09-01T00:17:51.940Z,63.02
2022-09-01T00:20:37.322Z,63.01
2022-09-01T00:23:22.480Z,63.28
2022-09-01T00:26:08.080Z,63.25
2022-09-01T00:28:53.674Z,63.72
2022-09-01T00:31:39.951Z,63.24
2022-09-01T00:34:25.253Z,63.45
2022-09-01T00:37:10.343Z,63.65
2022-09-01T00:39:56.042Z,63.31
2022-09-01T00:42:41.894Z,63.59
2022-09-01T00:45:27.264Z,63.55
2022-09-01T00:48:12.432Z,64.07
2022-09-01T00:51:00.253Z,64.08
2022-09-01T00:53:45.938Z,64.75
2022-09-01T00:56:33.465Z,64.24
2022-09-01T00:59:22.041Z,63.84
2022-09-01T01:02:07.303Z,64.79
2022-09-01T01:04:52.605Z,64.47
2022-09-01T01:07:38.313Z,64.39
2022-09-01T01:10:24.357Z,64.84
2022-09-01T01:13:12.181Z,65.50
2022-09-01T01:15:58.032Z,64.98
2022-09-01T01:18:43.467Z,64.87
2022-09-01T01:21:38.854Z,65.80
2022-09-01T01:24:30.983Z,65.17
2022-09-01T01:27:16.286Z,66.09
2022-09-01T01:30:04.518Z,65.64
2022-09-01T01:32:54.673Z,66.40
2022-09-01T01:35:40.784Z,66.17
2022-09-01T01:38:26.348Z,66.09
2022-09-01T01:41:12.226Z,65.67
2022-09-01T01:44:02.766Z,65.49
2022-09-01T01:46:51.044Z,66.31
2022-09-01T01:49:36.391Z,66.51
2022-09-01T01:52:21.710Z,66.75
2022-09-01T01:55:11.534Z,67.24
2022-09-01T01:57:58.715Z,67.52
2022-09-01T02:00:44.143Z,67.11
2022-09-01T02:03:32.606Z,67.02
2022-09-01T02:06:17.805Z,67.31
2022-09-01T02:09:03.712Z,67.70
2022-09-01T02:11:48.845Z,67.33
2022-09-01T02:14:34.242Z,67.98
2022-09-01T02:17:19.339Z,67.78
2022-09-01T02:20:04.357Z,68.35
2022-09-01T02:22:49.671Z,68.41
2022-09-01T02:25:35.552Z,68.54
2022-09-01T02:28:22.843Z,68.74
2022-09-01T02:31:10.072Z,68.80
2022-09-01T02:33:55.455Z,69.25
2022-09-01T02:36:43.466Z,68.78
2022-09-01T02:39:31.149Z,69.40
2022-09-01T02:42:16.218Z,70.38
2022-09-01T02:45:02.633Z,70.28
2022-09-01T02:47:47.963Z,70.43
2022-09-01T02:50:33.574Z,70.35
2022-09-01T02:53:18.875Z,70.68
2022-09-01T02:56:06.192Z,70.04
2022-09-01T02:58:51.126Z,70.07
2022-09-01T03:01:36.116Z,70.95
2022-09-01T03:04:23.421Z,70.84
2022-09-01T03:07:08.836Z,70.95
2022-09-01T03:09:53.821Z,71.09
2022-09-01T03:12:38.757Z,71.50
2022-09-01T03:15:24.225Z,72.42
2022-09-01T03:18:12.253Z,72.73
2022-09-01T03:20:57.572Z,71.83
2022-09-01T03:23:47.294Z,72.09
2022-09-01T03:26:32.356Z,72.39
2022-09-01T03:29:18.144Z,73.13
2022-09-01T03:32:04.552Z,73.04
2022-09-01T03:34:50.021Z,73.58
2022-09-01T03:37:35.516Z,73.75
2022-09-01T03:40:21.177Z,73.90
2022-09-01T03:43:09.433Z,74.08
2022-09-01T03:45:55.928Z,74.36
2022-09-01T03:48:40.859Z,74.48
2022-09-01T03:51:26.485Z,73.82
2022-09-01T03:54:12.241Z,74.70
2022-09-01T03:57:00.396Z,75.00
2022-09-01T03:59:45.399Z,75.17
2022-09-01T04:02:30.818Z,75.04
2022-09-01T04:05:17.654Z,75.84
2022-09-01T04:08:05.991Z,76.02
2022-09-01T04:10:54.395Z,75.53
2022-09-01T04:13:41.445Z,76.36
2022-09-01T04:16:29.850Z,78.15
2022-09-01T04:19:18.274Z,79.78
2022-09-01T04:22:04.273Z,80.84
2022-09-01T04:24:49.218Z,82.28
2022-09-01T04:27:34.267Z,82.14
2022-09-01T04:30:19.323Z,83.27
2022-09-01T04:33:04.592Z,85.07
2022-09-01T04:35:50.748Z,85.46
2022-09-01T04:38:35.883Z,85.76
2022-09-01T04:41:25.191Z,86.64
2022-09-01T04:44:10.331Z,86.92
2022-09-01T04:46:56.158Z,86.79
2022-09-01T04:49:41.251Z,86.51
2022-09-01T04:52:27.497Z,86.68
2022-09-01T04:55:13.547Z,86.21
2022-09-01T04:58:00.790Z,86.24
2022-09-01T05:00:48.621Z,87.66
2022-09-01T05:03:33.725Z,86.73
2022-09-01T05:06:20.057Z,86.20
2022-09-01T05:09:05.545Z,85.36
2022-09-01T05:11:51.462Z,84.39
2022-09-01T05:14:42.445Z,84.25
2022-09-01T05:17:27.721Z,85.41
2022-09-01T05:20:13.133Z,85.82
2022-09-01T05:22:58.522Z,87.40
2022-09-01T05:25:44.220Z,86.96
2022-09-01T05:28:29.452Z,86.12
2022-09-01T05:31:14.995Z,85.86
2022-09-01T05:34:01.138Z,86.89
2022-09-01T05:36:46.920Z,88.44
2022-09-01T05:39:32.864Z,88.84
2022-09-01T05:42:18.076Z,88.16
2022-09-01T05:45:03.477Z,87.55
2022-09-01T05:47:48.793Z,87.47
2022-09-01T05:50:33.942Z,86.64
2022-09-01T05:53:20.142Z,85.33
2022-09-01T05:56:09.066Z,84.36
2022-09-01T06:02:00.138Z,81.83
2022-09-01T06:04:45.682Z,79.44
2022-09-01T06:07:31.274Z,79.48
2022-09-01T06:10:16.383Z,79.70
2022-09-01T06:13:01.770Z,78.69
2022-09-01T06:15:49.316Z,77.42
2022-09-01T06:18:35.369Z,76.75
2022-09-01T06:21:21.740Z,75.65
2022-09-01T06:24:07.008Z,74.32
2022-09-01T06:26:52.336Z,73.89
2022-09-01T06:29:38.305Z,72.94
2022-09-01T06:32:23.639Z,72.21
2022-09-01T06:35:09.227Z,72.06
2022-09-01T06:37:54.316Z,71.14
2022-09-01T06:40:40.060Z,71.05
2022-09-01T06:43:25.268Z,70.12
2022-09-01T06:46:10.378Z,70.32
2022-09-01T06:48:56.689Z,69.53
2022-09-01T06:51:41.937Z,69.01
2022-09-01T06:54:27.139Z,69.03
2022-09-01T07:00:18.856Z,66.54
2022-09-01T07:03:04.497Z,66.49
2022-09-01T07:06:05.647Z,64.63
2022-09-01T07:12:26.498Z,64.17
2022-09-01T07:18:06.630Z,61.63
2022-09-01T07:21:36.276Z,60.88
2022-09-01T07:24:10.924Z,59.28
2022-09-01T07:26:56.522Z,57.72
2022-09-01T07:29:42.440Z,58.23
2022-09-01T07:35:32.669Z,57.56
2022-09-01T07:42:30.687Z,58.44
2022-09-01T07:44:31.229Z,54.70
2022-09-01T07:47:20.660Z,53.33
2022-09-01T07:50:39.668Z,53.69
2022-09-01T07:53:29.623Z,52.55
2022-09-01T07:56:18.396Z,52.70
2022-09-01T07:59:03.696Z,53.47
2022-09-01T08:01:48.833Z,53.45
2022-09-01T08:04:34.208Z,52.38
2022-09-01T08:07:19.253Z,51.78
2022-09-01T08:10:06.477Z,52.32
2022-09-01T08:12:58.995Z,51.87
2022-09-01T08:18:50.080Z,51.00
2022-09-01T08:21:35.133Z,50.78
2022-09-01T08:24:20.522Z,49.98
2022-09-01T08:27:05.512Z,49.34
2022-09-01T08:29:50.484Z,49.69
2022-09-01T08:32:37.020Z,48.49
2022-09-01T08:35:22.325Z,48.62
2022-09-01T08:38:08.750Z,47.76
2022-09-01T08:40:57.579Z,48.62
2022-09-01T08:44:21.122Z,48.41
2022-09-01T08:47:16.273Z,47.57
2022-09-01T08:50:01.834Z,47.53
2022-09-01T08:53:09.734Z,46.81
2022-09-01T08:55:58.521Z,49.02
2022-09-01T08:58:44.102Z,49.68
2022-09-01T09:01:40.485Z,51.58
2022-09-01T09:05:22.134Z,53.41
2022-09-01T09:08:41.535Z,53.00
2022-09-01T09:11:42.232Z,53.38
2022-09-01T09:14:53.072Z,54.01
2022-09-01T09:17:46.133Z,54.31
2022-09-01T09:20:31.400Z,53.52
2022-09-01T09:23:29.651Z,52.90
2022-09-01T09:26:15.951Z,53.59
2022-09-01T09:29:06.887Z,52.99
2022-09-01T09:32:06.958Z,52.52
2022-09-01T09:35:31.813Z,50.93
2022-09-01T09:38:21.845Z,49.57
2022-09-01T09:41:25.454Z,51.61
2022-09-01T09:44:32.169Z,52.72
2022-09-01T09:47:44.462Z,53.24
2022-09-01T09:50:38.099Z,53.48
2022-09-01T09:53:24.086Z,51.04
2022-09-01T09:56:15.120Z,52.17
2022-09-01T09:59:00.107Z,52.25
2022-09-01T10:01:45.250Z,50.50
2022-09-01T10:04:38.582Z,49.76
2022-09-01T10:07:36.437Z,50.25
2022-09-01T10:10:58.520Z,49.75
2022-09-01T10:13:43.963Z,48.91
2022-09-01T10:16:34.631Z,49.02
2022-09-01T10:19:20.874Z,49.48
2022-09-01T10:22:08.271Z,49.97
2022-09-01T10:24:53.542Z,49.98
2022-09-01T10:27:43.281Z,49.51
2022-09-01T10:30:30.390Z,49.45
2022-09-01T10:33:20.954Z,50.15
2022-09-01T10:36:08.140Z,49.78
2022-09-01T10:38:59.941Z,49.22
2022-09-01T10:42:00.743Z,49.04
2022-09-01T10:44:57.836Z,48.02
2022-09-01T10:47:43.453Z,47.67
2022-09-01T10:50:35.477Z,47.89
2022-09-01T10:53:34.002Z,47.91
2022-09-01T10:56:51.225Z,47.96
2022-09-01T10:59:41.767Z,46.49
2022-09-01T11:02:35.965Z,46.76
2022-09-01T11:05:21.531Z,45.67
2022-09-01T11:08:29.527Z,46.86
2022-09-01T11:11:36.543Z,46.61
2022-09-01T11:14:26.307Z,45.80
2022-09-01T11:17:43.547Z,46.47
2022-09-01T11:20:28.835Z,46.10
2022-09-01T11:23:28.039Z,45.86
2022-09-01T11:26:31.414Z,44.35
2022-09-01T11:29:55.509Z,44.21
2022-09-01T11:32:46.760Z,44.91
2022-09-01T11:35:32.599Z,45.02
2022-09-01T11:38:19.028Z,45.72
2022-09-01T11:41:04.219Z,45.34
2022-09-01T11:43:54.251Z,46.05
2022-09-01T11:46:39.963Z,46.18
2022-09-01T11:49:36.713Z,46.84
2022-09-01T11:52:25.331Z,45.52
2022-09-01T11:55:10.855Z,46.38
2022-09-01T11:57:56.342Z,44.59
2022-09-01T12:00:42.521Z,44.81
2022-09-01T12:03:29.592Z,45.22
2022-09-01T12:06:21.594Z,45.15
2022-09-01T12:09:06.697Z,45.86
2022-09-01T12:11:51.653Z,44.17
2022-09-01T12:15:02.117Z,43.25
2022-09-01T12:17:41.932Z,43.43
2022-09-01T12:20:31.360Z,43.17
2022-09-01T12:23:33.051Z,43.00
2022-09-01T12:26:24.696Z,39.59
2022-09-01T12:29:12.379Z,39.95
2022-09-01T12:31:58.484Z,38.59
2022-09-01T12:35:12.604Z,38.80
2022-09-01T12:38:19.658Z,40.22
2022-09-01T12:44:50.808Z,42.02
2022-09-01T12:47:36.199Z,42.60
2022-09-01T12:50:21.276Z,42.13
2022-09-01T12:53:15.969Z,40.97
2022-09-01T12:56:21.786Z,39.71
2022-09-01T12:59:15.527Z,38.70
2022-09-01T13:02:27.538Z,38.92
2022-09-01T13:05:31.806Z,39.41
2022-09-01T13:08:22.296Z,39.81
2022-09-01T13:11:11.383Z,40.70
2022-09-01T13:13:56.618Z,41.11
2022-09-01T13:16:41.801Z,42.91
2022-09-01T13:19:30.164Z,42.77
2022-09-01T13:22:15.885Z,43.36
2022-09-01T13:25:01.725Z,42.98
2022-09-01T13:27:47.349Z,42.74
2022-09-01T13:30:32.705Z,42.04
2022-09-01T13:33:19.580Z,43.04
2022-09-01T13:39:19.275Z,44.11
2022-09-01T13:42:05.931Z,43.62
2022-09-01T13:44:55.199Z,44.67
2022-09-01T13:53:54.060Z,45.15
2022-09-01T13:56:39.510Z,43.53
2022-09-01T13:59:25.188Z,43.74
2022-09-01T14:02:10.487Z,43.47
2022-09-01T14:04:55.559Z,43.18
2022-09-01T14:07:40.881Z,43.30
2022-09-01T14:10:28.933Z,43.86
2022-09-01T14:13:14.673Z,43.36
2022-09-01T14:16:00.155Z,42.83
2022-09-01T14:18:46.036Z,43.61
2022-09-01T14:21:31.062Z,43.53
2022-09-01T14:24:16.843Z,42.94
2022-09-01T14:27:03.113Z,42.61
2022-09-01T14:32:34.940Z,43.43
2022-09-01T14:35:22.973Z,43.63
2022-09-01T14:38:08.587Z,42.28
2022-09-01T14:40:53.521Z,43.47
2022-09-01T14:43:39.014Z,43.41
2022-09-01T14:46:24.388Z,43.55
2022-09-01T14:49:09.963Z,42.48
2022-09-01T14:52:11.359Z,42.16
2022-09-01T14:54:56.821Z,42.44
2022-09-01T14:57:41.976Z,42.21
2022-09-01T15:00:28.157Z,42.34
2022-09-01T15:03:14.050Z,42.53
2022-09-01T15:05:59.371Z,43.13
2022-09-01T15:08:45.452Z,43.27
2022-09-01T15:11:30.696Z,43.46
2022-09-01T15:14:16.542Z,43.72
2022-09-01T15:17:01.858Z,43.23
2022-09-01T15:19:46.840Z,43.12
2022-09-01T15:22:31.860Z,43.56
2022-09-01T15:25:18.319Z,42.80
2022-09-01T15:28:04.721Z,43.64
2022-09-01T15:30:51.738Z,43.32
2022-09-01T15:33:40.593Z,43.05
2022-09-01T15:36:27.760Z,42.73
2022-09-01T15:39:12.998Z,43.39
2022-09-01T15:41:57.963Z,43.14
2022-09-01T15:44:43.332Z,42.66
2022-09-01T15:47:30.101Z,42.38
2022-09-01T15:50:21.635Z,43.09
2022-09-01T15:53:08.428Z,43.43
2022-09-01T15:55:53.891Z,43.24
2022-09-01T15:58:59.502Z,43.60
2022-09-01T16:01:45.719Z,43.51
2022-09-01T16:04:30.755Z,44.19
2022-09-01T16:07:15.738Z,44.06
2022-09-01T16:10:01.191Z,44.40
2022-09-01T16:12:46.413Z,43.33
2022-09-01T16:15:31.986Z,43.72
2022-09-01T16:18:37.806Z,43.54
2022-09-01T16:21:35.353Z,43.99
2022-09-01T16:24:21.022Z,43.32
2022-09-01T16:27:09.271Z,44.04
2022-09-01T16:30:03.352Z,43.45
2022-09-01T16:32:48.997Z,43.78
2022-09-01T16:35:56.017Z,43.26
2022-09-01T16:38:47.618Z,43.73
2022-09-01T16:42:06.207Z,42.68
2022-09-01T16:45:08.891Z,41.99
2022-09-01T16:47:57.034Z,42.08
2022-09-01T16:50:55.378Z,40.83
2022-09-01T16:53:57.198Z,39.74
2022-09-01T16:57:04.988Z,41.05
2022-09-01T16:59:55.872Z,40.45
2022-09-01T17:03:06.093Z,41.22
2022-09-01T17:06:16.853Z,41.63
2022-09-01T17:09:15.189Z,41.73
2022-09-01T17:12:03.358Z,42.26
2022-09-01T17:14:55.533Z,42.18
2022-09-01T17:17:55.050Z,42.51
2022-09-01T17:20:43.715Z,42.73
2022-09-01T17:23:50.405Z,42.68
2022-09-01T17:26:35.535Z,42.67
2022-09-01T17:29:27.933Z,42.99
2022-09-01T17:32:25.450Z,42.38
2022-09-01T17:35:19.520Z,43.23
2022-09-01T17:38:23.721Z,43.33
2022-09-01T17:41:36.331Z,43.04
2022-09-01T17:44:46.959Z,43.73
2022-09-01T17:47:55.326Z,43.23
2022-09-01T17:51:05.749Z,44.27
2022-09-01T17:54:03.086Z,44.37
2022-09-01T17:57:05.008Z,44.47
2022-09-01T18:00:25.264Z,44.97
2022-09-01T18:03:46.286Z,45.10
2022-09-01T18:06:50.805Z,44.70
2022-09-01T18:09:45.093Z,45.44
2022-09-01T18:12:38.345Z,44.87
2022-09-01T18:15:24.340Z,44.98
2022-09-01T18:18:40.257Z,45.30
2022-09-01T18:21:32.080Z,45.60
2022-09-01T18:25:02.757Z,45.36
2022-09-01T18:27:48.076Z,45.46
2022-09-01T18:31:05.450Z,45.21
2022-09-01T18:34:09.725Z,45.50
2022-09-01T18:37:13.370Z,45.81
2022-09-01T18:40:21.523Z,45.58
2022-09-01T18:43:14.153Z,45.62
2022-09-01T18:46:08.729Z,46.32
2022-09-01T18:49:11.958Z,46.90
2022-09-01T18:52:20.088Z,46.49
2022-09-01T18:55:26.141Z,47.14
2022-09-01T18:58:31.820Z,47.24
2022-09-01T19:01:28.802Z,47.51
2022-09-01T19:04:34.111Z,47.88
2022-09-01T19:07:31.585Z,48.23
2022-09-01T19:10:20.783Z,48.20
2022-09-01T19:13:33.871Z,48.08
2022-09-01T19:16:44.504Z,47.81
2022-09-01T19:20:01.631Z,48.02
2022-09-01T19:22:56.023Z,48.57
2022-09-01T19:25:42.012Z,47.97
2022-09-01T19:28:40.694Z,48.47
2022-09-01T19:31:36.194Z,48.56
2022-09-01T19:34:56.446Z,49.41
2022-09-01T19:37:41.845Z,49.05
2022-09-01T19:40:32.318Z,49.24
2022-09-01T19:43:17.701Z,48.77
2022-09-01T19:46:20.778Z,48.93
2022-09-01T19:49:36.427Z,48.54
2022-09-01T19:52:22.014Z,48.60
2022-09-01T19:55:16.710Z,48.32
2022-09-01T19:58:10.503Z,48.49
2022-09-01T20:00:59.677Z,48.42
2022-09-01T20:03:50.436Z,48.50
2022-09-01T20:06:41.416Z,48.66
2022-09-01T20:09:56.730Z,48.34
2022-09-01T20:12:53.359Z,48.77
2022-09-01T20:15:54.086Z,48.44
2022-09-01T20:18:50.153Z,49.59
2022-09-01T20:21:43.965Z,49.32
2022-09-01T20:24:32.362Z,49.93
2022-09-01T20:27:29.487Z,50.30
2022-09-01T20:30:21.540Z,50.02
2022-09-01T20:33:19.615Z,50.33
2022-09-01T20:36:12.641Z,50.21
2022-09-01T20:39:03.833Z,50.76
2022-09-01T20:42:01.918Z,50.92
2022-09-01T20:44:56.395Z,51.43
2022-09-01T20:47:46.488Z,50.48
2022-09-01T20:50:54.364Z,50.30
2022-09-01T20:54:07.029Z,50.04
2022-09-01T20:57:31.604Z,50.01
2022-09-01T21:00:26.064Z,50.25
2022-09-01T21:03:38.134Z,49.92
2022-09-01T21:06:48.815Z,49.94
2022-09-01T21:09:43.097Z,50.27
2022-09-01T21:12:28.170Z,50.16
2022-09-01T21:15:44.278Z,50.39
2022-09-01T21:18:38.519Z,50.42
2022-09-01T21:21:35.851Z,50.29
2022-09-01T21:24:21.253Z,50.60
2022-09-01T21:27:13.194Z,50.41
2022-09-01T21:30:01.730Z,50.65
2022-09-01T21:32:47.210Z,50.93
2022-09-01T21:35:32.608Z,50.96
2022-09-01T21:38:18.188Z,51.33
2022-09-01T21:41:06.815Z,51.14
2022-09-01T21:43:54.896Z,51.28
2022-09-01T21:46:40.290Z,51.38
2022-09-01T21:49:25.633Z,51.55
2022-09-01T21:52:10.933Z,52.09
2022-09-01T21:54:56.404Z,51.68
2022-09-01T21:57:41.795Z,52.20
2022-09-01T22:00:31.748Z,52.43
2022-09-01T22:03:17.330Z,51.98
2022-09-01T22:06:02.372Z,51.86
2022-09-01T22:08:47.668Z,52.52
2022-09-01T22:11:35.586Z,53.03
2022-09-01T22:14:21.572Z,52.86
2022-09-01T22:17:06.994Z,53.09
2022-09-01T22:19:52.367Z,53.28
2022-09-01T22:22:37.838Z,52.88
2022-09-01T22:25:23.212Z,53.39
2022-09-01T22:28:09.397Z,52.87
2022-09-01T22:30:54.426Z,53.15
2022-09-01T22:33:39.761Z,53.15
2022-09-01T22:36:32.084Z,53.03
2022-09-01T22:39:18.350Z,53.03
2022-09-01T22:42:03.894Z,52.88
2022-09-01T22:44:49.181Z,53.09
2022-09-01T22:47:35.327Z,52.95
2022-09-01T22:50:23.089Z,53.50
2022-09-01T22:53:08.805Z,53.56
2022-09-01T22:55:54.228Z,53.79
2022-09-01T22:58:40.352Z,53.49
2022-09-01T23:01:27.704Z,53.57
2022-09-01T23:04:14.726Z,53.70
2022-09-01T23:06:59.773Z,53.74
2022-09-01T23:09:44.960Z,54.02
2022-09-01T23:12:30.069Z,53.42
2022-09-01T23:15:15.520Z,53.88
2022-09-01T23:18:00.954Z,54.01
2022-09-01T23:20:46.368Z,54.18
2022-09-01T23:23:32.901Z,53.87
2022-09-01T23:26:18.515Z,54.61
2022-09-01T23:29:04.586Z,55.58
2022-09-01T23:31:49.942Z,55.60
2022-09-01T23:34:35.395Z,55.72
2022-09-01T23:37:20.729Z,55.46
2022-09-01T23:40:07.019Z,55.95
2022-09-01T23:42:51.985Z,56.06
2022-09-01T23:45:42.603Z,55.67
2022-09-01T23:48:27.929Z,56.04
2022-09-01T23:51:13.867Z,56.14
2022-09-01T23:53:59.593Z,55.92
2022-09-01T23:56:45.010Z,56.56
2022-09-01T23:59:30.065Z,56.78
